Aeroporto :
LOGIN :

Iscrizione | Disclaimer

   EN    FR    IT 

 










Sommario :    VFR   VFR Marginale   IFR   IFR Intensivo   IFR Molto Intensivo
Visibilità : 
Base nubi : 
>= 8 km
>= 3000ft
5 / 8 km
1000 / 3000 ft
1500m / 5 km
500 / 1000 ft
800 / 1500m
200 / 500 ft
< 800m
< 200 ft
Simboli :   Temporali  Nebbia  Neve Forte  Precipitazioni Forti  Vento > 20 kt
SIGMETs :   Varie  Temporali  Ghiacco  Turbolenza  Onda orograficha  Ceneri Vulcaniche






- Altitudine del aeroporto : 97 ft
- Codice IATA : EBJ


EKEB - Esbjerg

ULTIMO METAR :
  • 250450Z AUTO 32014KT 9999 OVC017/// 10/07 Q1026

METARs OBSOLETI :
  • 250420Z AUTO 32014KT 9999 OVC016/// 10/07 Q1026
  • 250350Z AUTO 32013KT 9999 OVC017/// 10/07 Q1026
  • 250320Z AUTO 32013KT 9999 OVC019/// 10/07 Q1025
  • 250250Z AUTO 32017KT 9999 OVC019/// 10/06 Q1025
  • 250220Z AUTO 32018KT 9999 OVC017/// 10/07 Q1025

TAF TAF EKEB
Valido dal 25 a 03 ore il 25 a 12 ore UTC


250227Z 2503/2512 32012KT 9999 BKN018
TEMPO 2503/2508 32015G25KT BKN012



MetMap, La meteo Aeronautica in un colpo d'occhio ! - Copyright ORBIFLY Dicembre 2007 - Disclaimer

ORBIFLY MET'MAP TEAM :

Programmazione e sviluppo : Alexandra Zaïnal
Concezione : Baudouin d'Aumeries
Aiuto per la programmazione : Marc-Olivier Méhu
Supporto tecnico e logistico : Manuel Goepfert
Aiuto per la traduzione : Arnaldo La Scala

Contatto : metmap@orbifly.com




FONTI E CREDITI :

   NOAA